Time;durP1;ratioP1;P1;durP2;ratioP2;P2;SDS_P1;SDS_P2;PMS_P1;PMS_P2;Temp;Humidity;BMP_temperature;BMP_pressure;BME280_temperature;BME280_humidity;BME280_pressure;Samples;Min_cycle;Max_cycle;Signal;HPM_P1;HPM_P2
2023/12/20 00:01:00;;;;;;;0.20;0.20;;;;;;;;;;5057692;28;20033;-80
2023/12/20 00:03:25;;;;;;;0.45;0.45;;;;;;;;;;5052850;28;20032;-81
2023/12/20 00:05:51;;;;;;;0.57;0.28;;;;;;;;;;5056938;28;20035;-80
2023/12/20 00:08:17;;;;;;;0.10;0.10;;;;;;;;;;5057391;28;20029;-80
2023/12/20 00:10:45;;;;;;;0.52;0.52;;;;;;;;;;5056345;28;20033;-79
2023/12/20 00:13:17;;;;;;;0.10;0.10;;;;;;;;;;5055952;28;20036;-80
2023/12/20 00:15:45;;;;;;;0.10;0.10;;;;;;;;;;5056342;28;20783;-80
2023/12/20 00:18:11;;;;;;;0.30;0.30;;;;;;;;;;5084337;28;20040;-79
2023/12/20 00:20:36;;;;;;;0.20;0.20;;;;;;;;;;5055715;28;20020;-81
2023/12/20 00:23:02;;;;;;;0.20;0.20;;;;;;;;;;5056744;28;20047;-79
2023/12/20 00:25:35;;;;;;;0.20;0.20;;;;;;;;;;5052524;28;20033;-80
2023/12/20 00:28:00;;;;;;;0.28;0.28;;;;;;;;;;5054988;28;20096;-82
2023/12/20 00:30:26;;;;;;;0.25;0.25;;;;;;;;;;5053493;28;20123;-81
2023/12/20 00:32:56;;;;;;;0.32;0.32;;;;;;;;;;5049397;28;20032;-80
2023/12/20 00:35:21;;;;;;;0.25;0.25;;;;;;;;;;5050621;28;20139;-80
2023/12/20 00:37:47;;;;;;;0.40;0.40;;;;;;;;;;5053509;28;21662;-80
2023/12/20 00:40:15;;;;;;;0.30;0.30;;;;;;;;;;5054123;28;21569;-79
2023/12/20 00:42:41;;;;;;;0.10;0.10;;;;;;;;;;5058257;28;20048;-79
2023/12/20 00:45:07;;;;;;;7.30;0.73;;;;;;;;;;5052946;28;20122;-80
2023/12/20 00:47:32;;;;;;;0.30;0.30;;;;;;;;;;5058630;28;20029;-79
2023/12/20 00:49:58;;;;;;;0.25;0.25;;;;;;;;;;5056851;28;20159;-80
2023/12/20 00:52:24;;;;;;;0.60;0.60;;;;;;;;;;5052918;28;20488;-82
2023/12/20 00:54:52;;;;;;;0.20;0.20;;;;;;;;;;5054681;28;20029;-81
2023/12/20 00:57:17;;;;;;;0.22;0.22;;;;;;;;;;5054867;28;20024;-82
2023/12/20 00:59:42;;;;;;;0.28;0.28;;;;;;;;;;5054131;28;20047;-80
2023/12/20 01:02:10;;;;;;;0.75;0.75;;;;;;;;;;5053329;28;20052;-79
2023/12/20 01:04:36;;;;;;;0.20;0.20;;;;;;;;;;5055174;28;20033;-80
2023/12/20 01:07:04;;;;;;;0.10;0.10;;;;;;;;;;5051640;28;20391;-80
2023/12/20 01:09:29;;;;;;;0.20;0.20;;;;;;;;;;5051849;28;20025;-80
2023/12/20 01:11:54;;;;;;;4.72;1.27;;;;;;;;;;5051159;28;20068;-79
2023/12/20 01:14:20;;;;;;;0.30;0.30;;;;;;;;;;5053754;28;20392;-80
2023/12/20 01:16:46;;;;;;;0.20;0.20;;;;;;;;;;5053551;28;20541;-79
2023/12/20 01:19:11;;;;;;;0.20;0.20;;;;;;;;;;5052758;28;20028;-80
2023/12/20 01:21:39;;;;;;;1.42;0.35;;;;;;;;;;5054212;28;20025;-82
2023/12/20 01:24:05;;;;;;;0.45;0.45;;;;;;;;;;5051487;28;20116;-81
2023/12/20 01:26:32;;;;;;;0.15;0.15;;;;;;;;;;5052494;28;20116;-81
2023/12/20 01:29:01;;;;;;;0.15;0.15;;;;;;;;;;5054285;28;20477;-80
2023/12/20 01:31:27;;;;;;;0.30;0.30;;;;;;;;;;5052015;28;20029;-81
2023/12/20 01:33:53;;;;;;;0.55;0.50;;;;;;;;;;5053639;28;20473;-79
2023/12/20 01:36:18;;;;;;;0.65;0.65;;;;;;;;;;5054646;28;20033;-81
2023/12/20 01:38:43;;;;;;;1.10;0.80;;;;;;;;;;5055207;28;20033;-79
2023/12/20 01:41:09;;;;;;;2.58;2.05;;;;;;;;;;5052729;28;20048;-82
2023/12/20 01:43:34;;;;;;;1.00;1.00;;;;;;;;;;5054272;28;20040;-80
2023/12/20 01:46:00;;;;;;;6.03;1.33;;;;;;;;;;5055682;28;20154;-79
2023/12/20 01:48:27;;;;;;;1.77;1.23;;;;;;;;;;5051275;28;20457;-81
2023/12/20 01:50:54;;;;;;;0.63;0.63;;;;;;;;;;5056102;28;20539;-81
2023/12/20 01:53:25;;;;;;;0.30;0.30;;;;;;;;;;5053293;28;20048;-80
2023/12/20 01:55:58;;;;;;;0.20;0.20;;;;;;;;;;5055175;28;20107;-80
2023/12/20 01:58:24;;;;;;;0.38;0.30;;;;;;;;;;5083645;28;20079;-81
2023/12/20 02:00:50;;;;;;;1.13;0.75;;;;;;;;;;5049869;28;20059;-79
2023/12/20 02:03:17;;;;;;;0.47;0.47;;;;;;;;;;5050643;28;20033;-79
2023/12/20 02:05:44;;;;;;;1.10;1.00;;;;;;;;;;5055500;28;20723;-80
2023/12/20 02:08:09;;;;;;;1.05;0.75;;;;;;;;;;5055952;28;20020;-80
2023/12/20 02:10:35;;;;;;;0.30;0.30;;;;;;;;;;5052336;28;20039;-78
2023/12/20 02:13:04;;;;;;;0.38;0.38;;;;;;;;;;5051670;28;20029;-79
2023/12/20 02:15:29;;;;;;;0.30;0.30;;;;;;;;;;5054166;28;20424;-79
2023/12/20 02:17:55;;;;;;;0.52;0.52;;;;;;;;;;5050301;28;20081;-80
2023/12/20 02:20:21;;;;;;;0.20;0.20;;;;;;;;;;5052617;28;20024;-79
2023/12/20 02:22:46;;;;;;;0.43;0.43;;;;;;;;;;5050862;28;20032;-79
2023/12/20 02:25:12;;;;;;;0.93;0.45;;;;;;;;;;5051877;28;20029;-78
2023/12/20 02:27:38;;;;;;;0.30;0.30;;;;;;;;;;5054286;28;20211;-79
2023/12/20 02:30:05;;;;;;;1.67;1.35;;;;;;;;;;5053395;28;20037;-80
2023/12/20 02:32:30;;;;;;;0.20;0.20;;;;;;;;;;5051164;28;20025;-78
2023/12/20 02:34:56;;;;;;;0.50;0.50;;;;;;;;;;5053718;28;20036;-80
2023/12/20 02:37:22;;;;;;;0.45;0.40;;;;;;;;;;5055875;28;20033;-79
2023/12/20 02:39:47;;;;;;;4.57;1.55;;;;;;;;;;5053829;28;20029;-78
2023/12/20 02:42:12;;;;;;;0.17;0.17;;;;;;;;;;5051295;28;20033;-79
2023/12/20 02:44:38;;;;;;;0.45;0.45;;;;;;;;;;5082649;28;20025;-80
2023/12/20 02:47:03;;;;;;;0.20;0.20;;;;;;;;;;5052722;28;20048;-80
2023/12/20 02:49:29;;;;;;;0.63;0.63;;;;;;;;;;5056577;28;20469;-82
2023/12/20 02:51:54;;;;;;;0.57;0.57;;;;;;;;;;5054705;28;20037;-81
2023/12/20 02:54:20;;;;;;;0.38;0.38;;;;;;;;;;5083580;28;22051;-80
2023/12/20 02:56:45;;;;;;;0.22;0.22;;;;;;;;;;5055702;28;20028;-81
2023/12/20 02:59:11;;;;;;;0.43;0.43;;;;;;;;;;5058761;28;20397;-81
2023/12/20 03:01:44;;;;;;;0.40;0.40;;;;;;;;;;5055298;28;20393;-80
2023/12/20 03:04:13;;;;;;;0.30;0.30;;;;;;;;;;5058351;28;20150;-81
2023/12/20 03:06:44;;;;;;;0.38;0.38;;;;;;;;;;5052417;28;20040;-80
2023/12/20 03:09:10;;;;;;;0.30;0.30;;;;;;;;;;5055971;28;20131;-81
2023/12/20 03:11:35;;;;;;;0.35;0.35;;;;;;;;;;5053923;28;20539;-80
2023/12/20 03:14:04;;;;;;;0.30;0.30;;;;;;;;;;5054553;28;20028;-80
2023/12/20 03:16:31;;;;;;;0.17;0.17;;;;;;;;;;5050933;28;20190;-80
2023/12/20 03:18:56;;;;;;;0.80;0.77;;;;;;;;;;5056947;28;20497;-80
2023/12/20 03:21:22;;;;;;;0.30;0.30;;;;;;;;;;5056723;28;20021;-79
2023/12/20 03:23:47;;;;;;;0.70;0.70;;;;;;;;;;5056789;28;20051;-80
2023/12/20 03:26:14;;;;;;;0.90;0.90;;;;;;;;;;5056505;28;20039;-79
2023/12/20 03:28:39;;;;;;;0.73;0.55;;;;;;;;;;5055931;28;20094;-81
2023/12/20 03:31:05;;;;;;;0.60;0.60;;;;;;;;;;5055839;28;20413;-80
2023/12/20 03:33:30;;;;;;;0.32;0.32;;;;;;;;;;5056801;28;20413;-79
2023/12/20 03:35:56;;;;;;;0.20;0.20;;;;;;;;;;5057101;28;20037;-78
2023/12/20 03:38:23;;;;;;;0.55;0.55;;;;;;;;;;5058697;28;20039;-81
2023/12/20 03:40:49;;;;;;;3.78;1.15;;;;;;;;;;5054602;28;20021;-78
2023/12/20 03:43:15;;;;;;;1.52;0.73;;;;;;;;;;5055554;28;20358;-79
2023/12/20 03:45:41;;;;;;;0.40;0.40;;;;;;;;;;5059040;28;20037;-78
2023/12/20 03:48:07;;;;;;;0.63;0.63;;;;;;;;;;5050940;28;20033;-79
2023/12/20 03:50:34;;;;;;;0.40;0.40;;;;;;;;;;5052896;28;20033;-80
2023/12/20 03:52:59;;;;;;;0.60;0.60;;;;;;;;;;5056106;28;20437;-79
2023/12/20 03:55:25;;;;;;;0.65;0.52;;;;;;;;;;5056653;28;20045;-79
2023/12/20 03:57:50;;;;;;;0.55;0.55;;;;;;;;;;5054246;28;20041;-80
2023/12/20 04:00:16;;;;;;;1.85;0.90;;;;;;;;;;5054074;28;20025;-81
2023/12/20 04:02:42;;;;;;;0.63;0.63;;;;;;;;;;5056751;28;20070;-81
2023/12/20 04:05:08;;;;;;;0.90;0.90;;;;;;;;;;5054981;28;20025;-80
2023/12/20 04:07:36;;;;;;;0.80;0.80;;;;;;;;;;5050349;28;20381;-80
2023/12/20 04:10:03;;;;;;;0.40;0.40;;;;;;;;;;5055754;28;20464;-80
2023/12/20 04:12:29;;;;;;;0.98;0.77;;;;;;;;;;5058779;28;20021;-81
2023/12/20 04:14:57;;;;;;;0.60;0.60;;;;;;;;;;5053999;28;20086;-81
2023/12/20 04:17:29;;;;;;;1.17;1.00;;;;;;;;;;5053794;28;20029;-81
2023/12/20 04:19:57;;;;;;;2.83;0.90;;;;;;;;;;5056225;28;20031;-81
2023/12/20 04:22:24;;;;;;;0.73;0.70;;;;;;;;;;5057518;28;20392;-81
2023/12/20 04:24:50;;;;;;;0.80;0.80;;;;;;;;;;5054297;28;20028;-81
2023/12/20 04:27:25;;;;;;;0.95;0.93;;;;;;;;;;5057024;28;20108;-80
2023/12/20 04:29:50;;;;;;;0.85;0.70;;;;;;;;;;5054402;28;20373;-80
2023/12/20 04:32:18;;;;;;;0.52;0.52;;;;;;;;;;5057328;28;20032;-81
2023/12/20 04:34:43;;;;;;;1.17;0.63;;;;;;;;;;5056865;28;21776;-79
2023/12/20 04:37:09;;;;;;;1.40;1.13;;;;;;;;;;5054723;28;20025;-80
2023/12/20 04:39:34;;;;;;;0.65;0.65;;;;;;;;;;5054209;28;20023;-79
2023/12/20 04:41:59;;;;;;;1.92;1.70;;;;;;;;;;5049227;28;20064;-80
2023/12/20 04:44:26;;;;;;;0.63;0.63;;;;;;;;;;5050985;28;20147;-79
2023/12/20 04:46:56;;;;;;;1.50;1.40;;;;;;;;;;5046567;28;20377;-80
2023/12/20 04:49:21;;;;;;;1.00;1.00;;;;;;;;;;5050633;28;20036;-80
2023/12/20 04:51:47;;;;;;;2.13;0.77;;;;;;;;;;5051745;28;20029;-79
2023/12/20 04:54:13;;;;;;;2.10;1.35;;;;;;;;;;5054573;28;20037;-79
2023/12/20 04:56:39;;;;;;;0.90;0.90;;;;;;;;;;5049705;28;20040;-79
2023/12/20 04:59:04;;;;;;;1.33;0.98;;;;;;;;;;5051497;28;20049;-79
2023/12/20 05:01:29;;;;;;;0.40;0.40;;;;;;;;;;5051220;28;20036;-79
2023/12/20 05:03:55;;;;;;;0.63;0.63;;;;;;;;;;5049778;28;20024;-78
2023/12/20 05:06:20;;;;;;;0.50;0.50;;;;;;;;;;5048679;28;20013;-78
2023/12/20 05:08:46;;;;;;;1.85;0.85;;;;;;;;;;5055228;28;20481;-78
2023/12/20 05:11:14;;;;;;;0.43;0.43;;;;;;;;;;5053063;28;20058;-78
2023/12/20 05:13:39;;;;;;;0.30;0.30;;;;;;;;;;5054154;28;20032;-78
2023/12/20 05:16:05;;;;;;;0.20;0.20;;;;;;;;;;5052499;28;20381;-78
2023/12/20 05:18:30;;;;;;;0.98;0.88;;;;;;;;;;5055721;28;20032;-80
2023/12/20 05:20:56;;;;;;;0.47;0.47;;;;;;;;;;5052236;28;20017;-79
2023/12/20 05:23:22;;;;;;;0.73;0.73;;;;;;;;;;5055183;28;20059;-79
2023/12/20 05:25:47;;;;;;;0.40;0.40;;;;;;;;;;5054043;28;20039;-79
2023/12/20 05:28:13;;;;;;;0.40;0.40;;;;;;;;;;5055036;28;20047;-79
2023/12/20 05:30:38;;;;;;;4.45;0.98;;;;;;;;;;5050677;28;20056;-77
2023/12/20 05:33:04;;;;;;;0.90;0.90;;;;;;;;;;5045108;28;20044;-79
2023/12/20 05:35:29;;;;;;;0.30;0.30;;;;;;;;;;5051268;28;20106;-80
2023/12/20 05:37:55;;;;;;;1.02;1.00;;;;;;;;;;5048744;28;20039;-78
2023/12/20 05:40:20;;;;;;;0.38;0.38;;;;;;;;;;5050604;28;20017;-79
2023/12/20 05:42:45;;;;;;;1.35;0.75;;;;;;;;;;5049999;28;20037;-79
2023/12/20 05:45:11;;;;;;;7.53;4.95;;;;;;;;;;5050960;28;20028;-77
2023/12/20 05:47:36;;;;;;;3.00;2.72;;;;;;;;;;5047190;28;20797;-78
2023/12/20 05:50:02;;;;;;;5.93;2.50;;;;;;;;;;5047438;28;20381;-78
2023/12/20 05:52:28;;;;;;;2.00;1.90;;;;;;;;;;5047458;28;20179;-78
2023/12/20 05:54:53;;;;;;;1.63;1.52;;;;;;;;;;5049335;28;20027;-79
2023/12/20 05:57:18;;;;;;;2.40;2.20;;;;;;;;;;5051220;28;20028;-77
2023/12/20 05:59:44;;;;;;;1.63;1.52;;;;;;;;;;5050441;28;20573;-78
2023/12/20 06:02:09;;;;;;;1.60;1.50;;;;;;;;;;5045855;28;20040;-77
2023/12/20 06:04:34;;;;;;;1.38;1.30;;;;;;;;;;5047642;28;20033;-78
2023/12/20 06:07:00;;;;;;;1.83;1.25;;;;;;;;;;5044493;28;20037;-77
2023/12/20 06:09:28;;;;;;;1.13;1.13;;;;;;;;;;5043639;28;20021;-79
2023/12/20 06:11:54;;;;;;;0.52;0.52;;;;;;;;;;5045888;28;20036;-78
2023/12/20 06:14:19;;;;;;;2.50;1.42;;;;;;;;;;5048842;28;20047;-78
2023/12/20 06:16:45;;;;;;;0.98;0.93;;;;;;;;;;5052318;28;20029;-78
2023/12/20 06:19:11;;;;;;;1.33;1.15;;;;;;;;;;5045897;28;20107;-79
2023/12/20 06:21:36;;;;;;;2.13;1.17;;;;;;;;;;5043498;28;20596;-78
2023/12/20 06:24:01;;;;;;;0.98;0.98;;;;;;;;;;5046625;28;20025;-78
2023/12/20 06:26:27;;;;;;;3.90;2.20;;;;;;;;;;5046030;28;20067;-78
2023/12/20 06:28:52;;;;;;;4.80;4.00;;;;;;;;;;5044748;28;20029;-78
2023/12/20 06:31:17;;;;;;;2.30;1.98;;;;;;;;;;5045826;28;20029;-78
2023/12/20 06:33:43;;;;;;;3.65;2.10;;;;;;;;;;5045617;28;20108;-78
2023/12/20 06:36:15;;;;;;;3.50;2.90;;;;;;;;;;5049121;28;20037;-78
2023/12/20 06:38:42;;;;;;;5.10;2.30;;;;;;;;;;5046464;28;20115;-78
2023/12/20 06:41:07;;;;;;;2.40;1.83;;;;;;;;;;5046053;28;20028;-77
2023/12/20 06:43:33;;;;;;;2.92;2.55;;;;;;;;;;5048682;28;20532;-78
2023/12/20 06:46:00;;;;;;;2.38;2.13;;;;;;;;;;5051241;28;20035;-78
2023/12/20 06:48:25;;;;;;;5.78;4.53;;;;;;;;;;5050066;28;20028;-80
2023/12/20 06:50:51;;;;;;;3.55;3.22;;;;;;;;;;5048775;28;20503;-80
2023/12/20 06:53:16;;;;;;;3.15;2.85;;;;;;;;;;5045376;28;20025;-79
2023/12/20 06:55:42;;;;;;;2.35;2.13;;;;;;;;;;5047475;28;20036;-78
2023/12/20 06:58:08;;;;;;;2.78;2.58;;;;;;;;;;5039647;28;20091;-79
2023/12/20 07:00:34;;;;;;;3.85;2.85;;;;;;;;;;5071442;28;20041;-79
2023/12/20 07:02:59;;;;;;;5.47;4.35;;;;;;;;;;5044372;28;20040;-80
2023/12/20 07:05:25;;;;;;;3.15;2.38;;;;;;;;;;5045736;28;20148;-79
2023/12/20 07:07:50;;;;;;;6.57;5.72;;;;;;;;;;5045824;28;20036;-80
2023/12/20 07:10:16;;;;;;;10.13;4.50;;;;;;;;;;5042326;28;20033;-79
2023/12/20 07:12:41;;;;;;;6.28;3.70;;;;;;;;;;5074204;28;20048;-79
2023/12/20 07:15:07;;;;;;;5.97;2.58;;;;;;;;;;5042177;28;20083;-79
2023/12/20 07:17:33;;;;;;;5.38;3.60;;;;;;;;;;5041821;28;20086;-79
2023/12/20 07:20:03;;;;;;;4.13;3.78;;;;;;;;;;5042836;28;20056;-80
2023/12/20 07:22:28;;;;;;;8.57;4.30;;;;;;;;;;5045551;28;20032;-79
2023/12/20 07:24:54;;;;;;;5.70;3.67;;;;;;;;;;5047417;28;20025;-80
2023/12/20 07:27:20;;;;;;;4.93;3.20;;;;;;;;;;5051795;28;20107;-76
2023/12/20 07:29:45;;;;;;;7.72;4.43;;;;;;;;;;5044703;28;20120;-78
2023/12/20 07:32:10;;;;;;;9.85;5.35;;;;;;;;;;5047545;28;20396;-78
2023/12/20 07:34:36;;;;;;;5.40;4.90;;;;;;;;;;5051853;28;20709;-79
2023/12/20 07:37:01;;;;;;;7.22;5.28;;;;;;;;;;5049819;28;20047;-80
2023/12/20 07:39:26;;;;;;;7.88;5.70;;;;;;;;;;5048977;28;20039;-80
2023/12/20 07:41:52;;;;;;;7.43;6.05;;;;;;;;;;5050843;28;20025;-78
2023/12/20 07:44:17;;;;;;;8.77;6.63;;;;;;;;;;5050541;28;20535;-79
2023/12/20 07:46:43;;;;;;;6.68;5.38;;;;;;;;;;5049936;28;20039;-79
2023/12/20 07:49:08;;;;;;;26.20;6.72;;;;;;;;;;5048454;28;20079;-78
2023/12/20 07:51:34;;;;;;;6.70;5.38;;;;;;;;;;5049886;28;20025;-81
2023/12/20 07:53:59;;;;;;;12.52;7.13;;;;;;;;;;5048966;28;20033;-78
2023/12/20 07:56:24;;;;;;;8.80;7.70;;;;;;;;;;5047932;28;20448;-78
2023/12/20 07:58:50;;;;;;;11.02;8.00;;;;;;;;;;5049558;28;20053;-78
2023/12/20 08:01:16;;;;;;;7.85;6.53;;;;;;;;;;5049898;28;20025;-80
2023/12/20 08:03:41;;;;;;;7.55;6.25;;;;;;;;;;5048359;28;20040;-77
2023/12/20 08:06:06;;;;;;;7.72;6.72;;;;;;;;;;5047287;28;20028;-80
2023/12/20 08:08:32;;;;;;;12.85;7.38;;;;;;;;;;5047427;28;20120;-80
2023/12/20 08:10:59;;;;;;;9.50;5.18;;;;;;;;;;5046766;28;20041;-80
2023/12/20 08:13:26;;;;;;;11.45;7.55;;;;;;;;;;5050218;28;20366;-79
2023/12/20 08:15:52;;;;;;;6.90;6.30;;;;;;;;;;5051049;28;20106;-81
2023/12/20 08:18:19;;;;;;;8.82;7.70;;;;;;;;;;5051021;28;20060;-80
2023/12/20 08:20:48;;;;;;;8.93;6.20;;;;;;;;;;5051463;28;20048;-79
2023/12/20 08:23:14;;;;;;;6.88;5.80;;;;;;;;;;5049412;28;20024;-79
2023/12/20 08:25:39;;;;;;;11.80;6.97;;;;;;;;;;5049983;28;20377;-79
2023/12/20 08:28:05;;;;;;;8.80;6.97;;;;;;;;;;5048862;28;20032;-80
2023/12/20 08:30:31;;;;;;;9.73;7.25;;;;;;;;;;5048483;28;20421;-80
2023/12/20 08:32:56;;;;;;;14.93;7.10;;;;;;;;;;5049268;28;20765;-79
2023/12/20 08:35:22;;;;;;;10.02;7.30;;;;;;;;;;5049443;28;20032;-79
2023/12/20 08:37:47;;;;;;;7.25;5.10;;;;;;;;;;5045229;28;20373;-80
2023/12/20 08:40:13;;;;;;;15.38;8.13;;;;;;;;;;5046070;28;20118;-80
2023/12/20 08:42:38;;;;;;;14.30;7.82;;;;;;;;;;5049899;28;20116;-79
2023/12/20 08:45:04;;;;;;;9.25;7.32;;;;;;;;;;5050821;28;20025;-79
2023/12/20 08:47:30;;;;;;;12.15;10.40;;;;;;;;;;5050215;28;20029;-80
2023/12/20 08:49:57;;;;;;;15.85;10.30;;;;;;;;;;5046847;28;20051;-78
2023/12/20 08:52:23;;;;;;;10.43;9.30;;;;;;;;;;5048753;28;20021;-80
2023/12/20 08:54:51;;;;;;;14.65;10.65;;;;;;;;;;5050209;28;20051;-79
2023/12/20 08:57:19;;;;;;;14.30;9.82;;;;;;;;;;5048446;28;22130;-79
2023/12/20 08:59:44;;;;;;;11.32;10.20;;;;;;;;;;5050984;28;20078;-79
2023/12/20 09:02:10;;;;;;;19.15;10.50;;;;;;;;;;5049971;28;20520;-80
2023/12/20 09:04:35;;;;;;;21.48;13.68;;;;;;;;;;5048880;28;20035;-79
2023/12/20 09:07:01;;;;;;;18.58;13.52;;;;;;;;;;5049731;28;20094;-79
2023/12/20 09:09:26;;;;;;;18.73;12.82;;;;;;;;;;5047840;28;20115;-79
2023/12/20 09:11:52;;;;;;;22.02;12.30;;;;;;;;;;5044273;28;20531;-79
2023/12/20 09:14:17;;;;;;;22.38;11.52;;;;;;;;;;5047957;28;20063;-79
2023/12/20 09:16:43;;;;;;;16.30;12.73;;;;;;;;;;5048963;28;20219;-78
2023/12/20 09:19:08;;;;;;;23.05;13.65;;;;;;;;;;5046911;28;20131;-78
2023/12/20 09:21:33;;;;;;;15.15;11.27;;;;;;;;;;5051649;28;20029;-80
2023/12/20 09:23:59;;;;;;;12.35;10.85;;;;;;;;;;5051942;28;20393;-79
2023/12/20 09:26:24;;;;;;;17.70;11.77;;;;;;;;;;5052026;28;20159;-79
2023/12/20 09:28:49;;;;;;;26.27;13.52;;;;;;;;;;5054977;28;20040;-79
2023/12/20 09:31:15;;;;;;;18.52;13.88;;;;;;;;;;5050787;28;20032;-80
2023/12/20 09:33:40;;;;;;;36.35;19.05;;;;;;;;;;5049759;28;20556;-79
2023/12/20 09:36:06;;;;;;;23.67;13.20;;;;;;;;;;5050950;28;20037;-79
2023/12/20 09:38:31;;;;;;;18.23;14.40;;;;;;;;;;5050712;28;20064;-79
2023/12/20 09:40:57;;;;;;;26.50;19.52;;;;;;;;;;5050947;28;20021;-79
2023/12/20 09:43:25;;;;;;;18.30;13.25;;;;;;;;;;5050448;28;20029;-79
2023/12/20 09:45:53;;;;;;;23.10;14.75;;;;;;;;;;5048582;28;20028;-77
2023/12/20 09:48:19;;;;;;;24.45;16.65;;;;;;;;;;5047534;28;20032;-78
2023/12/20 09:50:46;;;;;;;29.77;15.20;;;;;;;;;;5050859;28;20037;-78
2023/12/20 09:53:15;;;;;;;18.10;12.88;;;;;;;;;;5051038;28;20021;-78
2023/12/20 09:55:41;;;;;;;20.30;14.85;;;;;;;;;;5049914;28;20450;-78
2023/12/20 09:58:08;;;;;;;20.33;14.13;;;;;;;;;;5048661;28;20128;-77
2023/12/20 10:00:34;;;;;;;23.58;15.23;;;;;;;;;;5048328;28;20706;-80
2023/12/20 10:03:00;;;;;;;16.17;12.20;;;;;;;;;;5046741;28;20033;-79
2023/12/20 10:05:28;;;;;;;22.63;14.27;;;;;;;;;;5048780;28;20028;-78
2023/12/20 10:07:53;;;;;;;12.80;10.50;;;;;;;;;;5047686;28;20033;-78
2023/12/20 10:10:19;;;;;;;16.00;12.10;;;;;;;;;;5047008;28;20032;-79
2023/12/20 10:13:10;;;;;;;21.05;12.82;;;;;;;;;;5048607;28;20554;-79
2023/12/20 10:15:37;;;;;;;21.45;11.85;;;;;;;;;;5048498;28;20166;-79
2023/12/20 10:18:03;;;;;;;10.93;9.38;;;;;;;;;;5047236;28;20033;-78
2023/12/20 10:20:29;;;;;;;15.35;11.55;;;;;;;;;;5047534;28;20619;-80
2023/12/20 10:22:56;;;;;;;15.10;12.05;;;;;;;;;;5046781;28;20036;-81
2023/12/20 10:25:21;;;;;;;21.35;16.10;;;;;;;;;;5047076;28;20028;-80
2023/12/20 10:27:47;;;;;;;17.98;13.70;;;;;;;;;;5048719;28;20384;-78
2023/12/20 10:30:14;;;;;;;13.68;10.45;;;;;;;;;;5047326;28;20029;-79
2023/12/20 10:32:40;;;;;;;30.00;15.82;;;;;;;;;;5043932;28;20032;-82
2023/12/20 10:35:06;;;;;;;15.43;13.30;;;;;;;;;;5044122;28;20045;-81
2023/12/20 10:37:35;;;;;;;23.98;11.00;;;;;;;;;;5044164;28;20029;-78
2023/12/20 10:40:03;;;;;;;12.07;10.80;;;;;;;;;;5046682;28;20036;-79
2023/12/20 10:42:30;;;;;;;11.05;8.75;;;;;;;;;;5047326;28;20032;-79
2023/12/20 10:44:56;;;;;;;17.75;9.95;;;;;;;;;;5047505;28;20043;-78
2023/12/20 10:47:24;;;;;;;18.17;13.30;;;;;;;;;;5045933;28;20029;-77
2023/12/20 10:49:52;;;;;;;21.98;12.23;;;;;;;;;;5045043;28;20037;-77
2023/12/20 10:52:17;;;;;;;20.63;12.98;;;;;;;;;;5047773;28;20075;-77
2023/12/20 10:54:44;;;;;;;16.33;12.20;;;;;;;;;;5048342;28;20036;-78
2023/12/20 10:57:09;;;;;;;18.88;12.00;;;;;;;;;;5050286;28;20120;-79
2023/12/20 10:59:37;;;;;;;13.95;8.93;;;;;;;;;;5050694;28;20013;-78
2023/12/20 11:02:05;;;;;;;17.08;11.25;;;;;;;;;;5051645;28;20522;-77
2023/12/20 11:04:50;;;;;;;16.63;10.40;;;;;;;;;;5050368;28;20053;-78
2023/12/20 11:07:19;;;;;;;11.25;9.98;;;;;;;;;;5051042;28;20025;-77
2023/12/20 11:09:55;;;;;;;18.25;10.40;;;;;;;;;;5050191;28;20146;-78
2023/12/20 11:12:32;;;;;;;14.90;11.02;;;;;;;;;;5052571;28;20107;-85
2023/12/20 11:15:02;;;;;;;13.63;10.95;;;;;;;;;;5053744;28;20035;-82
2023/12/20 11:17:28;;;;;;;18.33;13.45;;;;;;;;;;5052211;28;20037;-80
2023/12/20 11:19:56;;;;;;;16.73;9.75;;;;;;;;;;5050024;28;20028;-80
2023/12/20 11:22:28;;;;;;;14.70;11.05;;;;;;;;;;5049575;28;20029;-80
2023/12/20 11:24:59;;;;;;;11.45;10.25;;;;;;;;;;5051471;28;20036;-79
2023/12/20 11:27:26;;;;;;;17.38;11.50;;;;;;;;;;5053456;28;20477;-77
2023/12/20 11:29:53;;;;;;;17.20;11.07;;;;;;;;;;5051275;28;20029;-81
2023/12/20 11:32:25;;;;;;;19.80;11.80;;;;;;;;;;5049632;28;20021;-79
2023/12/20 11:34:53;;;;;;;17.73;11.63;;;;;;;;;;5050209;28;20537;-79
2023/12/20 11:37:20;;;;;;;13.43;10.15;;;;;;;;;;5048839;28;20021;-78
2023/12/20 11:39:45;;;;;;;18.65;10.73;;;;;;;;;;5048781;28;20028;-79
2023/12/20 11:42:11;;;;;;;15.02;11.32;;;;;;;;;;5051071;28;20033;-80
2023/12/20 11:44:37;;;;;;;16.58;10.07;;;;;;;;;;5049751;28;20029;-82
2023/12/20 11:47:03;;;;;;;19.25;11.05;;;;;;;;;;5049149;28;20396;-80
2023/12/20 11:49:30;;;;;;;15.13;10.63;;;;;;;;;;5051157;28;20033;-78
2023/12/20 11:51:56;;;;;;;11.50;9.93;;;;;;;;;;5051060;28;20036;-79
2023/12/20 11:54:22;;;;;;;17.77;11.20;;;;;;;;;;5047085;28;20021;-80
2023/12/20 11:56:48;;;;;;;14.85;12.65;;;;;;;;;;5049756;28;20048;-79
2023/12/20 11:59:13;;;;;;;19.27;9.73;;;;;;;;;;5049538;28;20405;-78
2023/12/20 12:01:39;;;;;;;19.60;11.48;;;;;;;;;;5050309;28;20508;-82
2023/12/20 12:04:07;;;;;;;16.27;10.40;;;;;;;;;;5049716;28;20048;-78
2023/12/20 12:06:36;;;;;;;11.98;10.23;;;;;;;;;;5050482;28;20040;-78
2023/12/20 12:09:04;;;;;;;14.27;9.88;;;;;;;;;;5047394;28;20432;-79
2023/12/20 12:11:30;;;;;;;15.60;10.60;;;;;;;;;;5050687;28;20025;-79
2023/12/20 12:13:55;;;;;;;18.48;11.27;;;;;;;;;;5050325;28;20025;-79
2023/12/20 12:16:21;;;;;;;19.58;13.05;;;;;;;;;;5050029;28;20355;-79
2023/12/20 12:18:54;;;;;;;15.02;10.00;;;;;;;;;;5049198;28;20055;-80
2023/12/20 12:21:20;;;;;;;14.77;11.10;;;;;;;;;;5050282;28;20033;-79
2023/12/20 12:23:46;;;;;;;13.18;9.88;;;;;;;;;;5050576;28;20029;-77
2023/12/20 12:26:11;;;;;;;17.58;11.68;;;;;;;;;;5047302;28;20035;-79
2023/12/20 12:28:40;;;;;;;14.80;9.20;;;;;;;;;;5048872;28;20035;-77
2023/12/20 12:31:17;;;;;;;19.63;11.48;;;;;;;;;;5048958;28;20111;-80
2023/12/20 12:33:44;;;;;;;19.33;11.43;;;;;;;;;;5048032;28;20063;-79
2023/12/20 12:36:11;;;;;;;14.77;10.95;;;;;;;;;;5050255;28;20075;-78
2023/12/20 12:38:36;;;;;;;15.25;8.95;;;;;;;;;;5048241;28;20028;-78
2023/12/20 12:41:02;;;;;;;10.38;7.35;;;;;;;;;;5050252;28;20385;-78
2023/12/20 12:43:27;;;;;;;15.65;11.10;;;;;;;;;;5050240;28;20468;-76
2023/12/20 12:45:53;;;;;;;12.60;10.60;;;;;;;;;;5047511;28;20575;-78
2023/12/20 12:48:19;;;;;;;18.10;8.77;;;;;;;;;;5052441;28;20056;-77
2023/12/20 12:50:46;;;;;;;10.00;8.82;;;;;;;;;;5049082;28;20044;-78
2023/12/20 12:53:11;;;;;;;14.88;9.88;;;;;;;;;;5054240;28;20036;-78
2023/12/20 12:55:37;;;;;;;15.70;11.20;;;;;;;;;;5053342;28;20028;-79
2023/12/20 12:58:02;;;;;;;11.20;9.25;;;;;;;;;;5053850;28;20049;-78
2023/12/20 13:00:28;;;;;;;12.52;7.57;;;;;;;;;;5054181;28;20134;-77
2023/12/20 13:02:53;;;;;;;16.58;7.32;;;;;;;;;;5055099;28;20032;-80
2023/12/20 13:05:18;;;;;;;25.00;8.10;;;;;;;;;;5055614;28;20036;-82
2023/12/20 13:07:45;;;;;;;7.72;5.88;;;;;;;;;;5051663;28;20021;-82
2023/12/20 13:10:11;;;;;;;5.75;5.18;;;;;;;;;;5053414;28;20047;-77
2023/12/20 13:12:36;;;;;;;7.80;4.10;;;;;;;;;;5051373;28;20040;-80
2023/12/20 13:15:03;;;;;;;5.47;3.90;;;;;;;;;;5082125;28;20028;-77
2023/12/20 13:17:29;;;;;;;3.22;2.58;;;;;;;;;;5053234;28;20464;-78
2023/12/20 13:19:54;;;;;;;3.42;3.13;;;;;;;;;;5052827;28;20035;-77
2023/12/20 13:22:20;;;;;;;3.47;2.33;;;;;;;;;;5054596;28;20384;-78
2023/12/20 13:24:45;;;;;;;6.28;2.42;;;;;;;;;;5049443;28;20020;-78
2023/12/20 13:27:11;;;;;;;3.63;2.88;;;;;;;;;;5051432;28;20025;-78
2023/12/20 13:29:36;;;;;;;4.10;2.42;;;;;;;;;;5039265;28;20488;-78
2023/12/20 13:32:03;;;;;;;3.05;1.65;;;;;;;;;;5044240;28;20021;-78
2023/12/20 13:34:29;;;;;;;3.83;3.38;;;;;;;;;;5052517;28;20029;-80
2023/12/20 13:36:54;;;;;;;6.75;3.60;;;;;;;;;;5056081;28;20484;-79
2023/12/20 13:39:19;;;;;;;5.93;3.75;;;;;;;;;;5051122;28;20021;-78
2023/12/20 13:41:45;;;;;;;24.38;11.73;;;;;;;;;;5048956;28;20112;-78
2023/12/20 13:44:12;;;;;;;10.65;6.13;;;;;;;;;;5050064;28;20025;-78
2023/12/20 13:46:37;;;;;;;12.80;6.20;;;;;;;;;;5049734;28;20111;-79
2023/12/20 13:49:04;;;;;;;9.15;3.35;;;;;;;;;;5046822;28;20112;-80
2023/12/20 13:51:30;;;;;;;3.53;3.22;;;;;;;;;;5050101;28;20110;-79
2023/12/20 13:53:55;;;;;;;4.25;2.33;;;;;;;;;;5048483;28;20476;-79
2023/12/20 13:56:22;;;;;;;1.40;1.30;;;;;;;;;;5055014;28;20063;-78
2023/12/20 13:58:48;;;;;;;2.55;1.45;;;;;;;;;;5048766;28;20045;-80
2023/12/20 14:01:14;;;;;;;1.48;1.05;;;;;;;;;;5048891;28;20442;-78
2023/12/20 14:03:39;;;;;;;1.15;1.05;;;;;;;;;;5047878;28;20041;-80
2023/12/20 14:06:06;;;;;;;0.98;0.90;;;;;;;;;;5047851;28;20032;-78
2023/12/20 14:08:31;;;;;;;1.17;1.08;;;;;;;;;;5050536;28;20469;-78
2023/12/20 14:10:57;;;;;;;1.63;0.95;;;;;;;;;;5049516;28;20032;-78
2023/12/20 14:13:22;;;;;;;1.92;1.35;;;;;;;;;;5048224;28;20029;-77
2023/12/20 14:15:49;;;;;;;0.70;0.70;;;;;;;;;;5046086;28;20032;-79
2023/12/20 14:18:15;;;;;;;1.65;1.55;;;;;;;;;;5047505;28;20112;-78
2023/12/20 14:20:42;;;;;;;1.50;1.35;;;;;;;;;;5046760;28;20207;-79
2023/12/20 14:23:12;;;;;;;0.63;0.63;;;;;;;;;;5043953;28;20033;-78
2023/12/20 14:25:37;;;;;;;;;;;;;;;;;;5044771;28;20060;-78
2023/12/20 14:28:03;;;;;;;1.27;0.98;;;;;;;;;;5050825;28;19938;-81
2023/12/20 14:30:29;;;;;;;1.98;1.48;;;;;;;;;;5047931;28;20107;-79